sensor_id;sensor_type;location;lat;lon;timestamp;pressure;altitude;pressure_sealevel;temperature
54306;BMP280;50434;45.188;5.712;2022-08-07T00:00:29;99449.94;;;26.49
54306;BMP280;50434;45.188;5.712;2022-08-07T00:02:55;99454.06;;;26.48
54306;BMP280;50434;45.188;5.712;2022-08-07T00:05:21;99456.28;;;26.50
54306;BMP280;50434;45.188;5.712;2022-08-07T00:07:47;99452.53;;;26.45
54306;BMP280;50434;45.188;5.712;2022-08-07T00:10:12;99446.16;;;26.43
54306;BMP280;50434;45.188;5.712;2022-08-07T00:12:38;99453.44;;;26.34
54306;BMP280;50434;45.188;5.712;2022-08-07T00:15:04;99452.06;;;26.35
54306;BMP280;50434;45.188;5.712;2022-08-07T00:17:29;99456.22;;;26.34
54306;BMP280;50434;45.188;5.712;2022-08-07T00:19:55;99451.72;;;26.27
54306;BMP280;50434;45.188;5.712;2022-08-07T00:22:20;99457.13;;;26.23
54306;BMP280;50434;45.188;5.712;2022-08-07T00:24:46;99442.88;;;26.17
54306;BMP280;50434;45.188;5.712;2022-08-07T00:27:11;99435.09;;;26.15
54306;BMP280;50434;45.188;5.712;2022-08-07T00:29:36;99443.94;;;26.10
54306;BMP280;50434;45.188;5.712;2022-08-07T00:32:02;99438.13;;;26.06
54306;BMP280;50434;45.188;5.712;2022-08-07T00:34:28;99435.34;;;26.06
54306;BMP280;50434;45.188;5.712;2022-08-07T00:36:54;99441.56;;;26.04
54306;BMP280;50434;45.188;5.712;2022-08-07T00:39:20;99449.09;;;26.02
54306;BMP280;50434;45.188;5.712;2022-08-07T00:41:57;99450.47;;;26.01
54306;BMP280;50434;45.188;5.712;2022-08-07T00:44:24;99448.03;;;25.93
54306;BMP280;50434;45.188;5.712;2022-08-07T00:46:50;99448.34;;;25.86
54306;BMP280;50434;45.188;5.712;2022-08-07T00:49:15;99452.28;;;25.81
54306;BMP280;50434;45.188;5.712;2022-08-07T00:51:40;99448.16;;;25.82
54306;BMP280;50434;45.188;5.712;2022-08-07T00:54:06;99446.31;;;25.73
54306;BMP280;50434;45.188;5.712;2022-08-07T00:56:33;99441.53;;;25.75
54306;BMP280;50434;45.188;5.712;2022-08-07T00:58:58;99448.69;;;25.78
54306;BMP280;50434;45.188;5.712;2022-08-07T01:01:24;99445.25;;;25.80
54306;BMP280;50434;45.188;5.712;2022-08-07T01:03:50;99447.78;;;25.74
54306;BMP280;50434;45.188;5.712;2022-08-07T01:06:17;99447.16;;;25.62
54306;BMP280;50434;45.188;5.712;2022-08-07T01:08:43;99445.91;;;25.65
54306;BMP280;50434;45.188;5.712;2022-08-07T01:11:10;99455.66;;;25.64
54306;BMP280;50434;45.188;5.712;2022-08-07T01:13:36;99452.75;;;25.62
54306;BMP280;50434;45.188;5.712;2022-08-07T01:16:02;99457.22;;;25.53
54306;BMP280;50434;45.188;5.712;2022-08-07T01:18:29;99455.22;;;25.56
54306;BMP280;50434;45.188;5.712;2022-08-07T01:21:15;99453.16;;;25.56
54306;BMP280;50434;45.188;5.712;2022-08-07T01:23:44;99451.53;;;25.51
54306;BMP280;50434;45.188;5.712;2022-08-07T01:26:13;99455.47;;;25.46
54306;BMP280;50434;45.188;5.712;2022-08-07T01:28:44;99457.53;;;25.46
54306;BMP280;50434;45.188;5.712;2022-08-07T01:31:10;99445.66;;;25.45
54306;BMP280;50434;45.188;5.712;2022-08-07T01:33:36;99452.66;;;25.46
54306;BMP280;50434;45.188;5.712;2022-08-07T01:36:02;99454.72;;;25.46
54306;BMP280;50434;45.188;5.712;2022-08-07T01:38:29;99448.22;;;25.41
54306;BMP280;50434;45.188;5.712;2022-08-07T01:41:00;99453.69;;;25.39
54306;BMP280;50434;45.188;5.712;2022-08-07T01:43:27;99450.28;;;25.41
54306;BMP280;50434;45.188;5.712;2022-08-07T01:45:53;99447.59;;;25.43
54306;BMP280;50434;45.188;5.712;2022-08-07T01:48:19;99447.41;;;25.39
54306;BMP280;50434;45.188;5.712;2022-08-07T01:50:48;99457.56;;;25.32
54306;BMP280;50434;45.188;5.712;2022-08-07T01:53:16;99451.34;;;25.34
54306;BMP280;50434;45.188;5.712;2022-08-07T01:55:45;99452.06;;;25.34
54306;BMP280;50434;45.188;5.712;2022-08-07T01:58:13;99456.19;;;25.33
54306;BMP280;50434;45.188;5.712;2022-08-07T02:00:40;99456.94;;;25.34
54306;BMP280;50434;45.188;5.712;2022-08-07T02:03:10;99448.03;;;25.24
54306;BMP280;50434;45.188;5.712;2022-08-07T02:05:42;99452.25;;;25.25
54306;BMP280;50434;45.188;5.712;2022-08-07T02:08:11;99463.13;;;25.19
54306;BMP280;50434;45.188;5.712;2022-08-07T02:10:38;99457.03;;;25.22
54306;BMP280;50434;45.188;5.712;2022-08-07T02:13:05;99463.03;;;25.17
54306;BMP280;50434;45.188;5.712;2022-08-07T02:15:31;99465.59;;;25.13
54306;BMP280;50434;45.188;5.712;2022-08-07T02:17:58;99462.81;;;25.13
54306;BMP280;50434;45.188;5.712;2022-08-07T02:20:27;99468.50;;;25.15
54306;BMP280;50434;45.188;5.712;2022-08-07T02:22:58;99463.44;;;25.11
54306;BMP280;50434;45.188;5.712;2022-08-07T02:25:26;99466.09;;;25.09
54306;BMP280;50434;45.188;5.712;2022-08-07T02:27:53;99456.06;;;25.04
54306;BMP280;50434;45.188;5.712;2022-08-07T02:30:19;99464.34;;;25.02
54306;BMP280;50434;45.188;5.712;2022-08-07T02:32:46;99453.31;;;24.90
54306;BMP280;50434;45.188;5.712;2022-08-07T02:35:14;99456.59;;;24.87
54306;BMP280;50434;45.188;5.712;2022-08-07T02:37:44;99459.25;;;24.85
54306;BMP280;50434;45.188;5.712;2022-08-07T02:40:11;99457.81;;;24.84
54306;BMP280;50434;45.188;5.712;2022-08-07T02:42:38;99461.94;;;24.83
54306;BMP280;50434;45.188;5.712;2022-08-07T02:45:06;99458.44;;;24.82
54306;BMP280;50434;45.188;5.712;2022-08-07T02:47:32;99465.13;;;24.77
54306;BMP280;50434;45.188;5.712;2022-08-07T02:49:59;99456.66;;;24.75
54306;BMP280;50434;45.188;5.712;2022-08-07T02:52:38;99458.13;;;24.76
54306;BMP280;50434;45.188;5.712;2022-08-07T02:55:35;99447.69;;;24.77
54306;BMP280;50434;45.188;5.712;2022-08-07T02:58:03;99452.03;;;24.80
54306;BMP280;50434;45.188;5.712;2022-08-07T03:00:33;99453.97;;;24.77
54306;BMP280;50434;45.188;5.712;2022-08-07T03:02:59;99457.38;;;24.76
54306;BMP280;50434;45.188;5.712;2022-08-07T03:05:26;99460.41;;;24.80
54306;BMP280;50434;45.188;5.712;2022-08-07T03:07:54;99457.00;;;24.81
54306;BMP280;50434;45.188;5.712;2022-08-07T03:10:20;99451.94;;;24.78
54306;BMP280;50434;45.188;5.712;2022-08-07T03:12:46;99454.59;;;24.76
54306;BMP280;50434;45.188;5.712;2022-08-07T03:15:12;99446.75;;;24.72
54306;BMP280;50434;45.188;5.712;2022-08-07T03:17:40;99454.16;;;24.68
54306;BMP280;50434;45.188;5.712;2022-08-07T03:20:07;99451.50;;;24.70
54306;BMP280;50434;45.188;5.712;2022-08-07T03:22:33;99459.38;;;24.73
54306;BMP280;50434;45.188;5.712;2022-08-07T03:25:00;99458.50;;;24.71
54306;BMP280;50434;45.188;5.712;2022-08-07T03:27:25;99458.41;;;24.69
54306;BMP280;50434;45.188;5.712;2022-08-07T03:29:54;99458.91;;;24.65
54306;BMP280;50434;45.188;5.712;2022-08-07T03:32:24;99443.19;;;24.58
54306;BMP280;50434;45.188;5.712;2022-08-07T03:34:53;99446.41;;;24.53
54306;BMP280;50434;45.188;5.712;2022-08-07T03:37:21;99445.44;;;24.48
54306;BMP280;50434;45.188;5.712;2022-08-07T03:39:48;99447.78;;;24.40
54306;BMP280;50434;45.188;5.712;2022-08-07T03:42:16;99438.81;;;24.42
54306;BMP280;50434;45.188;5.712;2022-08-07T03:44:42;99446.44;;;24.41
54306;BMP280;50434;45.188;5.712;2022-08-07T03:47:09;99447.09;;;24.40
54306;BMP280;50434;45.188;5.712;2022-08-07T03:49:35;99445.69;;;24.41
54306;BMP280;50434;45.188;5.712;2022-08-07T03:52:01;99443.06;;;24.43
54306;BMP280;50434;45.188;5.712;2022-08-07T03:54:26;99443.78;;;24.43
54306;BMP280;50434;45.188;5.712;2022-08-07T03:56:53;99442.31;;;24.42
54306;BMP280;50434;45.188;5.712;2022-08-07T03:59:20;99443.78;;;24.43
54306;BMP280;50434;45.188;5.712;2022-08-07T04:01:45;99442.72;;;24.37
54306;BMP280;50434;45.188;5.712;2022-08-07T04:04:11;99450.38;;;24.36
54306;BMP280;50434;45.188;5.712;2022-08-07T04:06:39;99448.16;;;24.35
54306;BMP280;50434;45.188;5.712;2022-08-07T04:09:06;99441.78;;;24.32
54306;BMP280;50434;45.188;5.712;2022-08-07T04:11:32;99439.50;;;24.29
54306;BMP280;50434;45.188;5.712;2022-08-07T04:14:00;99446.38;;;24.28
54306;BMP280;50434;45.188;5.712;2022-08-07T04:16:26;99447.00;;;24.26
54306;BMP280;50434;45.188;5.712;2022-08-07T04:18:52;99444.22;;;24.26
54306;BMP280;50434;45.188;5.712;2022-08-07T04:21:17;99450.63;;;24.29
54306;BMP280;50434;45.188;5.712;2022-08-07T04:23:43;99449.78;;;24.26
54306;BMP280;50434;45.188;5.712;2022-08-07T04:26:09;99449.69;;;24.24
54306;BMP280;50434;45.188;5.712;2022-08-07T04:28:34;99450.91;;;24.21
54306;BMP280;50434;45.188;5.712;2022-08-07T04:31:00;99447.00;;;24.26
54306;BMP280;50434;45.188;5.712;2022-08-07T04:33:26;99440.72;;;24.26
54306;BMP280;50434;45.188;5.712;2022-08-07T04:35:52;99448.97;;;24.24
54306;BMP280;50434;45.188;5.712;2022-08-07T04:38:18;99452.38;;;24.22
54306;BMP280;50434;45.188;5.712;2022-08-07T04:40:45;99454.41;;;24.22
54306;BMP280;50434;45.188;5.712;2022-08-07T04:43:11;99453.59;;;24.19
54306;BMP280;50434;45.188;5.712;2022-08-07T04:48:20;99468.28;;;24.08
54306;BMP280;50434;45.188;5.712;2022-08-07T04:51:15;99472.50;;;24.09
54306;BMP280;50434;45.188;5.712;2022-08-07T04:53:52;99472.91;;;24.04
54306;BMP280;50434;45.188;5.712;2022-08-07T04:57:48;99480.44;;;24.01
54306;BMP280;50434;45.188;5.712;2022-08-07T04:59:45;99484.91;;;24.06
54306;BMP280;50434;45.188;5.712;2022-08-07T05:02:20;99488.91;;;24.03
54306;BMP280;50434;45.188;5.712;2022-08-07T05:07:45;99493.00;;;24.02
54306;BMP280;50434;45.188;5.712;2022-08-07T05:10:18;99495.84;;;23.91
54306;BMP280;50434;45.188;5.712;2022-08-07T05:12:58;99501.78;;;23.97
54306;BMP280;50434;45.188;5.712;2022-08-07T05:15:28;99496.78;;;23.95
54306;BMP280;50434;45.188;5.712;2022-08-07T05:18:08;99501.19;;;23.87
54306;BMP280;50434;45.188;5.712;2022-08-07T05:20:45;99499.72;;;23.86
54306;BMP280;50434;45.188;5.712;2022-08-07T05:23:30;99504.47;;;23.83
54306;BMP280;50434;45.188;5.712;2022-08-07T05:25:58;99514.88;;;23.83
54306;BMP280;50434;45.188;5.712;2022-08-07T05:28:26;99500.47;;;23.86
54306;BMP280;50434;45.188;5.712;2022-08-07T05:30:53;99506.75;;;23.87
54306;BMP280;50434;45.188;5.712;2022-08-07T05:33:21;99517.03;;;23.84
54306;BMP280;50434;45.188;5.712;2022-08-07T05:35:49;99525.63;;;23.88
54306;BMP280;50434;45.188;5.712;2022-08-07T05:38:15;99524.88;;;23.88
54306;BMP280;50434;45.188;5.712;2022-08-07T05:40:41;99525.03;;;23.90
54306;BMP280;50434;45.188;5.712;2022-08-07T05:43:07;99529.75;;;23.87
54306;BMP280;50434;45.188;5.712;2022-08-07T05:45:33;99532.66;;;23.89
54306;BMP280;50434;45.188;5.712;2022-08-07T05:47:59;99529.13;;;23.89
54306;BMP280;50434;45.188;5.712;2022-08-07T05:50:25;99535.44;;;23.89
54306;BMP280;50434;45.188;5.712;2022-08-07T05:52:50;99538.81;;;23.88
54306;BMP280;50434;45.188;5.712;2022-08-07T05:55:16;99538.22;;;23.89
54306;BMP280;50434;45.188;5.712;2022-08-07T05:57:42;99531.34;;;23.90
54306;BMP280;50434;45.188;5.712;2022-08-07T06:00:09;99532.75;;;23.91
54306;BMP280;50434;45.188;5.712;2022-08-07T06:02:35;99538.22;;;23.89
54306;BMP280;50434;45.188;5.712;2022-08-07T06:05:06;99531.91;;;23.89
54306;BMP280;50434;45.188;5.712;2022-08-07T06:07:32;99529.63;;;23.85
54306;BMP280;50434;45.188;5.712;2022-08-07T06:09:59;99535.31;;;23.87
54306;BMP280;50434;45.188;5.712;2022-08-07T06:12:25;99532.03;;;23.91
54306;BMP280;50434;45.188;5.712;2022-08-07T06:14:51;99526.84;;;23.97
54306;BMP280;50434;45.188;5.712;2022-08-07T06:17:18;99522.09;;;23.99
54306;BMP280;50434;45.188;5.712;2022-08-07T06:19:44;99525.94;;;24.06
54306;BMP280;50434;45.188;5.712;2022-08-07T06:22:10;99522.44;;;24.05
54306;BMP280;50434;45.188;5.712;2022-08-07T06:24:35;99530.91;;;24.07
54306;BMP280;50434;45.188;5.712;2022-08-07T06:27:01;99526.44;;;24.02
54306;BMP280;50434;45.188;5.712;2022-08-07T06:29:28;99523.16;;;24.06
54306;BMP280;50434;45.188;5.712;2022-08-07T06:31:53;99517.84;;;24.10
54306;BMP280;50434;45.188;5.712;2022-08-07T06:34:22;99521.22;;;24.08
54306;BMP280;50434;45.188;5.712;2022-08-07T06:36:48;99521.34;;;24.10
54306;BMP280;50434;45.188;5.712;2022-08-07T06:39:13;99517.84;;;24.10
54306;BMP280;50434;45.188;5.712;2022-08-07T06:41:44;99523.66;;;24.14
54306;BMP280;50434;45.188;5.712;2022-08-07T06:44:11;99517.34;;;24.13
54306;BMP280;50434;45.188;5.712;2022-08-07T06:46:39;99521.56;;;24.14
54306;BMP280;50434;45.188;5.712;2022-08-07T06:49:05;99516.97;;;24.19
54306;BMP280;50434;45.188;5.712;2022-08-07T06:51:33;99519.13;;;24.20
54306;BMP280;50434;45.188;5.712;2022-08-07T06:54:00;99515.13;;;24.23
54306;BMP280;50434;45.188;5.712;2022-08-07T06:56:30;99518.03;;;24.25
54306;BMP280;50434;45.188;5.712;2022-08-07T06:59:16;99510.03;;;24.20
54306;BMP280;50434;45.188;5.712;2022-08-07T07:01:44;99513.06;;;24.24
54306;BMP280;50434;45.188;5.712;2022-08-07T07:04:10;99505.53;;;24.26
54306;BMP280;50434;45.188;5.712;2022-08-07T07:06:36;99510.28;;;24.24
54306;BMP280;50434;45.188;5.712;2022-08-07T07:09:29;99516.78;;;24.28
54306;BMP280;50434;45.188;5.712;2022-08-07T07:14:40;99514.34;;;24.34
54306;BMP280;50434;45.188;5.712;2022-08-07T07:17:17;99515.69;;;24.33
54306;BMP280;50434;45.188;5.712;2022-08-07T07:19:47;99502.47;;;24.34
54306;BMP280;50434;45.188;5.712;2022-08-07T07:22:16;99510.22;;;24.35
54306;BMP280;50434;45.188;5.712;2022-08-07T07:24:42;99498.56;;;24.39
54306;BMP280;50434;45.188;5.712;2022-08-07T07:27:11;99509.97;;;24.43
54306;BMP280;50434;45.188;5.712;2022-08-07T07:29:40;99495.53;;;24.46
54306;BMP280;50434;45.188;5.712;2022-08-07T07:32:11;99492.25;;;24.50
54306;BMP280;50434;45.188;5.712;2022-08-07T07:34:41;99491.94;;;24.57
54306;BMP280;50434;45.188;5.712;2022-08-07T07:37:07;99491.94;;;24.57
54306;BMP280;50434;45.188;5.712;2022-08-07T07:39:35;99499.09;;;24.60
54306;BMP280;50434;45.188;5.712;2022-08-07T07:42:04;99491.28;;;24.70
54306;BMP280;50434;45.188;5.712;2022-08-07T07:44:30;99483.63;;;24.71
54306;BMP280;50434;45.188;5.712;2022-08-07T07:46:59;99485.28;;;24.76
54306;BMP280;50434;45.188;5.712;2022-08-07T07:49:26;99479.19;;;24.79
54306;BMP280;50434;45.188;5.712;2022-08-07T07:51:53;99479.19;;;24.79
54306;BMP280;50434;45.188;5.712;2022-08-07T07:54:21;99484.34;;;24.85
54306;BMP280;50434;45.188;5.712;2022-08-07T07:56:48;99481.47;;;24.83
54306;BMP280;50434;45.188;5.712;2022-08-07T07:59:15;99473.72;;;24.81
54306;BMP280;50434;45.188;5.712;2022-08-07T08:01:44;99477.94;;;24.82
54306;BMP280;50434;45.188;5.712;2022-08-07T08:04:12;99473.84;;;24.83
54306;BMP280;50434;45.188;5.712;2022-08-07T08:06:42;99469.38;;;24.92
54306;BMP280;50434;45.188;5.712;2022-08-07T08:09:08;99466.19;;;24.98
54306;BMP280;50434;45.188;5.712;2022-08-07T08:11:35;99473.66;;;25.07
54306;BMP280;50434;45.188;5.712;2022-08-07T08:14:00;99458.88;;;25.04
54306;BMP280;50434;45.188;5.712;2022-08-07T08:16:41;99459.94;;;25.11
54306;BMP280;50434;45.188;5.712;2022-08-07T08:19:09;99459.28;;;25.12
54306;BMP280;50434;45.188;5.712;2022-08-07T08:21:39;99452.06;;;25.21
54306;BMP280;50434;45.188;5.712;2022-08-07T08:24:25;99455.56;;;25.21
54306;BMP280;50434;45.188;5.712;2022-08-07T08:27:10;99456.59;;;25.28
54306;BMP280;50434;45.188;5.712;2022-08-07T08:29:45;99449.19;;;25.32
54306;BMP280;50434;45.188;5.712;2022-08-07T08:32:17;99450.63;;;25.33
54306;BMP280;50434;45.188;5.712;2022-08-07T08:34:43;99445.53;;;25.30
54306;BMP280;50434;45.188;5.712;2022-08-07T08:37:11;99445.03;;;25.33
54306;BMP280;50434;45.188;5.712;2022-08-07T08:39:39;99439.22;;;25.43
54306;BMP280;50434;45.188;5.712;2022-08-07T08:42:16;99452.03;;;25.48
54306;BMP280;50434;45.188;5.712;2022-08-07T08:48:05;99442.22;;;25.47
54306;BMP280;50434;45.188;5.712;2022-08-07T08:50:47;99442.53;;;25.53
54306;BMP280;50434;45.188;5.712;2022-08-07T08:53:28;99434.47;;;25.59
54306;BMP280;50434;45.188;5.712;2022-08-07T08:56:03;99437.97;;;25.59
54306;BMP280;50434;45.188;5.712;2022-08-07T08:58:41;99438.38;;;25.67
54306;BMP280;50434;45.188;5.712;2022-08-07T09:06:54;99443.63;;;25.75
54306;BMP280;50434;45.188;5.712;2022-08-07T09:09:34;99439.38;;;25.74
54306;BMP280;50434;45.188;5.712;2022-08-07T09:15:09;99431.41;;;25.82
54306;BMP280;50434;45.188;5.712;2022-08-07T09:17:45;99438.09;;;25.90
54306;BMP280;50434;45.188;5.712;2022-08-07T09:20:43;99440.03;;;26.01
54306;BMP280;50434;45.188;5.712;2022-08-07T09:26:23;99427.69;;;26.22
54306;BMP280;50434;45.188;5.712;2022-08-07T09:28:58;99430.78;;;26.28
54306;BMP280;50434;45.188;5.712;2022-08-07T09:31:42;99431.06;;;26.34
54306;BMP280;50434;45.188;5.712;2022-08-07T09:34:27;99432.63;;;26.37
54306;BMP280;50434;45.188;5.712;2022-08-07T09:37:19;99425.22;;;26.44
54306;BMP280;50434;45.188;5.712;2022-08-07T09:40:04;99417.44;;;26.42
54306;BMP280;50434;45.188;5.712;2022-08-07T09:42:51;99417.13;;;26.50
54306;BMP280;50434;45.188;5.712;2022-08-07T09:45:39;99416.75;;;26.57
54306;BMP280;50434;45.188;5.712;2022-08-07T09:51:20;99412.06;;;26.77
54306;BMP280;50434;45.188;5.712;2022-08-07T09:53:53;99405.44;;;26.86
54306;BMP280;50434;45.188;5.712;2022-08-07T10:17:11;99399.50;;;27.11
54306;BMP280;50434;45.188;5.712;2022-08-07T10:28:01;99383.16;;;27.39
54306;BMP280;50434;45.188;5.712;2022-08-07T10:30:47;99382.13;;;27.48
54306;BMP280;50434;45.188;5.712;2022-08-07T10:36:37;99376.38;;;27.61
54306;BMP280;50434;45.188;5.712;2022-08-07T10:44:46;99361.56;;;27.77
54306;BMP280;50434;45.188;5.712;2022-08-07T10:47:32;99354.66;;;27.80
54306;BMP280;50434;45.188;5.712;2022-08-07T10:50:11;99353.78;;;27.93
54306;BMP280;50434;45.188;5.712;2022-08-07T10:52:52;99341.28;;;27.96
54306;BMP280;50434;45.188;5.712;2022-08-07T10:55:24;99352.69;;;28.02
54306;BMP280;50434;45.188;5.712;2022-08-07T11:00:44;99347.56;;;28.14
54306;BMP280;50434;45.188;5.712;2022-08-07T11:03:14;99342.75;;;28.16
54306;BMP280;50434;45.188;5.712;2022-08-07T11:05:51;99339.03;;;28.12
54306;BMP280;50434;45.188;5.712;2022-08-07T11:08:33;99342.00;;;28.16
54306;BMP280;50434;45.188;5.712;2022-08-07T11:14:12;99330.94;;;28.20
54306;BMP280;50434;45.188;5.712;2022-08-07T11:17:02;99323.28;;;28.20
54306;BMP280;50434;45.188;5.712;2022-08-07T11:19:37;99326.22;;;28.24
54306;BMP280;50434;45.188;5.712;2022-08-07T11:22:09;99326.41;;;28.30
54306;BMP280;50434;45.188;5.712;2022-08-07T11:24:52;99321.03;;;28.36
54306;BMP280;50434;45.188;5.712;2022-08-07T11:30:20;99324.19;;;28.46
54306;BMP280;50434;45.188;5.712;2022-08-07T11:33:27;99320.03;;;28.47
54306;BMP280;50434;45.188;5.712;2022-08-07T11:36:21;99320.94;;;28.54
54306;BMP280;50434;45.188;5.712;2022-08-07T11:41:34;99322.44;;;28.57
54306;BMP280;50434;45.188;5.712;2022-08-07T11:44:17;99317.69;;;28.61
54306;BMP280;50434;45.188;5.712;2022-08-07T11:47:14;99312.31;;;28.67
54306;BMP280;50434;45.188;5.712;2022-08-07T11:50:06;99310.44;;;28.74
54306;BMP280;50434;45.188;5.712;2022-08-07T11:56:09;99304.72;;;28.72
54306;BMP280;50434;45.188;5.712;2022-08-07T11:58:53;99301.28;;;28.73
54306;BMP280;50434;45.188;5.712;2022-08-07T12:04:33;99293.94;;;28.86
54306;BMP280;50434;45.188;5.712;2022-08-07T12:07:13;99296.91;;;28.90
54306;BMP280;50434;45.188;5.712;2022-08-07T12:09:49;99294.03;;;28.88
54306;BMP280;50434;45.188;5.712;2022-08-07T12:12:40;99287.19;;;28.93
54306;BMP280;50434;45.188;5.712;2022-08-07T12:15:21;99284.38;;;28.93
54306;BMP280;50434;45.188;5.712;2022-08-07T12:18:15;99280.31;;;28.98
54306;BMP280;50434;45.188;5.712;2022-08-07T12:20:47;99274.09;;;29.01
54306;BMP280;50434;45.188;5.712;2022-08-07T12:26:28;99276.53;;;29.11
54306;BMP280;50434;45.188;5.712;2022-08-07T12:29:02;99262.59;;;29.15
54306;BMP280;50434;45.188;5.712;2022-08-07T12:31:59;99267.75;;;29.22
54306;BMP280;50434;45.188;5.712;2022-08-07T12:34:30;99260.19;;;29.27
54306;BMP280;50434;45.188;5.712;2022-08-07T12:36:56;99257.53;;;29.33
54306;BMP280;50434;45.188;5.712;2022-08-07T12:39:25;99253.38;;;29.34
54306;BMP280;50434;45.188;5.712;2022-08-07T12:41:54;99245.84;;;29.41
54306;BMP280;50434;45.188;5.712;2022-08-07T12:44:23;99246.03;;;29.47
54306;BMP280;50434;45.188;5.712;2022-08-07T12:47:11;99248.34;;;29.54
54306;BMP280;50434;45.188;5.712;2022-08-07T12:50:05;99243.84;;;29.45
54306;BMP280;50434;45.188;5.712;2022-08-07T12:52:58;99239.88;;;29.52
54306;BMP280;50434;45.188;5.712;2022-08-07T12:55:35;99234.91;;;29.51
54306;BMP280;50434;45.188;5.712;2022-08-07T12:58:04;99235.72;;;29.55
54306;BMP280;50434;45.188;5.712;2022-08-07T13:03:41;99218.94;;;29.57
54306;BMP280;50434;45.188;5.712;2022-08-07T13:06:28;99209.09;;;29.58
54306;BMP280;50434;45.188;5.712;2022-08-07T13:20:24;99202.63;;;29.77
54306;BMP280;50434;45.188;5.712;2022-08-07T13:22:55;99194.38;;;29.83
54306;BMP280;50434;45.188;5.712;2022-08-07T13:25:33;99193.06;;;29.88
54306;BMP280;50434;45.188;5.712;2022-08-07T13:28:06;99196.06;;;29.94
54306;BMP280;50434;45.188;5.712;2022-08-07T13:30:37;99188.44;;;29.99
54306;BMP280;50434;45.188;5.712;2022-08-07T13:36:12;99182.34;;;30.06
54306;BMP280;50434;45.188;5.712;2022-08-07T13:38:48;99184.44;;;30.08
54306;BMP280;50434;45.188;5.712;2022-08-07T13:41:32;99180.97;;;30.09
54306;BMP280;50434;45.188;5.712;2022-08-07T13:44:02;99182.53;;;30.14
54306;BMP280;50434;45.188;5.712;2022-08-07T13:46:32;99176.97;;;30.18
54306;BMP280;50434;45.188;5.712;2022-08-07T13:49:00;99173.56;;;30.22
54306;BMP280;50434;45.188;5.712;2022-08-07T13:51:29;99163.69;;;30.21
54306;BMP280;50434;45.188;5.712;2022-08-07T13:54:06;99168.00;;;30.24
54306;BMP280;50434;45.188;5.712;2022-08-07T13:56:35;99163.75;;;30.23
54306;BMP280;50434;45.188;5.712;2022-08-07T13:59:02;99160.97;;;30.25
54306;BMP280;50434;45.188;5.712;2022-08-07T14:01:35;99163.91;;;30.29
54306;BMP280;50434;45.188;5.712;2022-08-07T14:04:07;99159.09;;;30.33
54306;BMP280;50434;45.188;5.712;2022-08-07T14:06:36;99162.06;;;30.39
54306;BMP280;50434;45.188;5.712;2022-08-07T14:09:03;99154.44;;;30.46
54306;BMP280;50434;45.188;5.712;2022-08-07T14:11:31;99139.81;;;30.51
54306;BMP280;50434;45.188;5.712;2022-08-07T14:14:04;99150.88;;;30.43
54306;BMP280;50434;45.188;5.712;2022-08-07T14:16:40;99148.81;;;30.46
54306;BMP280;50434;45.188;5.712;2022-08-07T14:19:16;99144.66;;;30.47
54306;BMP280;50434;45.188;5.712;2022-08-07T14:21:44;99144.78;;;30.53
54306;BMP280;50434;45.188;5.712;2022-08-07T14:24:18;99139.97;;;30.57
54306;BMP280;50434;45.188;5.712;2022-08-07T14:26:50;99123.78;;;30.58
54306;BMP280;50434;45.188;5.712;2022-08-07T14:29:21;99138.53;;;30.56
54306;BMP280;50434;45.188;5.712;2022-08-07T14:31:49;99131.56;;;30.59
54306;BMP280;50434;45.188;5.712;2022-08-07T14:34:15;99139.44;;;30.65
54306;BMP280;50434;45.188;5.712;2022-08-07T14:36:41;99133.13;;;30.66
54306;BMP280;50434;45.188;5.712;2022-08-07T14:39:09;99124.84;;;30.74
54306;BMP280;50434;45.188;5.712;2022-08-07T14:41:35;99131.88;;;30.73
54306;BMP280;50434;45.188;5.712;2022-08-07T14:44:06;99131.88;;;30.73
54306;BMP280;50434;45.188;5.712;2022-08-07T14:46:34;99126.28;;;30.75
54306;BMP280;50434;45.188;5.712;2022-08-07T14:49:02;99119.25;;;30.76
54306;BMP280;50434;45.188;5.712;2022-08-07T14:51:28;99113.69;;;30.78
54306;BMP280;50434;45.188;5.712;2022-08-07T14:53:57;99126.41;;;30.81
54306;BMP280;50434;45.188;5.712;2022-08-07T14:56:28;99122.94;;;30.83
54306;BMP280;50434;45.188;5.712;2022-08-07T14:58:58;99120.72;;;30.77
54306;BMP280;50434;45.188;5.712;2022-08-07T15:01:29;99119.38;;;30.80
54306;BMP280;50434;45.188;5.712;2022-08-07T15:04:00;99123.66;;;30.83
54306;BMP280;50434;45.188;5.712;2022-08-07T15:06:30;99109.59;;;30.83
54306;BMP280;50434;45.188;5.712;2022-08-07T15:09:02;99115.09;;;30.79
54306;BMP280;50434;45.188;5.712;2022-08-07T15:11:30;99113.69;;;30.78
54306;BMP280;50434;45.188;5.712;2022-08-07T15:14:00;99103.81;;;30.77
54306;BMP280;50434;45.188;5.712;2022-08-07T15:16:34;99103.25;;;30.85
54306;BMP280;50434;45.188;5.712;2022-08-07T15:19:04;99106.84;;;30.87
54306;BMP280;50434;45.188;5.712;2022-08-07T15:21:35;99102.53;;;30.84
54306;BMP280;50434;45.188;5.712;2022-08-07T15:24:08;99103.88;;;30.81
54306;BMP280;50434;45.188;5.712;2022-08-07T15:26:39;99107.22;;;30.72
54306;BMP280;50434;45.188;5.712;2022-08-07T15:29:06;99099.47;;;30.70
54306;BMP280;50434;45.188;5.712;2022-08-07T15:31:34;99106.59;;;30.75
54306;BMP280;50434;45.188;5.712;2022-08-07T15:34:01;99102.31;;;30.72
54306;BMP280;50434;45.188;5.712;2022-08-07T15:36:27;99104.44;;;30.74
54306;BMP280;50434;45.188;5.712;2022-08-07T15:38:54;99105.19;;;30.76
54306;BMP280;50434;45.188;5.712;2022-08-07T15:41:22;99110.78;;;30.74
54306;BMP280;50434;45.188;5.712;2022-08-07T15:44:09;99108.66;;;30.73
54306;BMP280;50434;45.188;5.712;2022-08-07T15:46:36;99115.03;;;30.75
54306;BMP280;50434;45.188;5.712;2022-08-07T15:49:05;99116.41;;;30.74
54306;BMP280;50434;45.188;5.712;2022-08-07T15:51:31;99108.00;;;30.76
54306;BMP280;50434;45.188;5.712;2022-08-07T15:53:59;99106.63;;;30.77
54306;BMP280;50434;45.188;5.712;2022-08-07T15:56:35;99110.75;;;30.72
54306;BMP280;50434;45.188;5.712;2022-08-07T15:59:07;99112.06;;;30.67
54306;BMP280;50434;45.188;5.712;2022-08-07T16:01:39;99113.44;;;30.66
54306;BMP280;50434;45.188;5.712;2022-08-07T16:04:08;99103.44;;;30.59
54306;BMP280;50434;45.188;5.712;2022-08-07T16:06:55;99106.09;;;30.53
54306;BMP280;50434;45.188;5.712;2022-08-07T16:09:28;99110.25;;;30.50
54306;BMP280;50434;45.188;5.712;2022-08-07T16:11:56;99116.63;;;30.51
54306;BMP280;50434;45.188;5.712;2022-08-07T16:22:54;99103.84;;;30.48